createdAt,value
2018-11-27T00:02:24.572Z,74.50
2018-11-27T00:04:54.317Z,74.60
2018-11-27T00:07:38.372Z,74.60
2018-11-27T00:10:09.550Z,74.60
2018-11-27T00:12:39.592Z,74.50
2018-11-27T00:15:11.230Z,74.50
2018-11-27T00:17:40.672Z,74.50
2018-11-27T00:20:13.317Z,74.50
2018-11-27T00:22:53.692Z,74.60
2018-11-27T00:25:23.049Z,74.40
2018-11-27T00:27:52.500Z,74.30
2018-11-27T00:30:22.226Z,74.30
2018-11-27T00:32:52.161Z,74.30
2018-11-27T00:35:21.527Z,74.20
2018-11-27T00:37:51.519Z,74.20
2018-11-27T00:40:21.943Z,74.20
2018-11-27T00:42:51.350Z,74.10
2018-11-27T00:45:21.816Z,74.10
2018-11-27T00:47:51.871Z,74.10
2018-11-27T00:50:22.380Z,74.00
2018-11-27T00:52:51.768Z,74.00
2018-11-27T00:55:23.874Z,74.00
2018-11-27T00:57:55.028Z,74.00
2018-11-27T01:00:25.420Z,73.90
2018-11-27T01:03:01.818Z,74.00
2018-11-27T01:05:31.743Z,74.00
2018-11-27T01:08:01.215Z,74.00
2018-11-27T01:10:31.535Z,73.90
2018-11-27T01:13:00.891Z,73.90
2018-11-27T01:15:30.608Z,73.40
2018-11-27T01:18:00.687Z,73.90
2018-11-27T01:20:30.664Z,73.80
2018-11-27T01:23:00.672Z,73.80
2018-11-27T01:25:30.032Z,73.90
2018-11-27T01:27:59.429Z,73.70
2018-11-27T01:30:28.839Z,73.80
2018-11-27T01:32:58.246Z,73.80
2018-11-27T01:35:27.654Z,73.70
2018-11-27T01:37:57.017Z,73.70
2018-11-27T01:40:27.314Z,73.70
2018-11-27T01:45:38.219Z,73.70
2018-11-27T01:48:07.551Z,73.80
2018-11-27T01:50:47.081Z,73.90
2018-11-27T01:53:26.070Z,73.90
2018-11-27T01:55:55.519Z,74.00
2018-11-27T01:58:25.181Z,74.00
2018-11-27T02:00:58.782Z,74.00
2018-11-27T02:03:27.900Z,74.00
2018-11-27T02:05:57.883Z,74.00
2018-11-27T02:08:27.371Z,74.00
2018-11-27T02:10:56.708Z,74.00
2018-11-27T02:13:26.411Z,74.00
2018-11-27T02:15:55.841Z,74.00
2018-11-27T02:18:25.464Z,74.00
2018-11-27T02:20:54.867Z,73.80
2018-11-27T02:23:24.576Z,73.90
2018-11-27T02:25:54.520Z,73.90
2018-11-27T02:28:23.931Z,73.90
2018-11-27T02:30:53.899Z,74.00
2018-11-27T02:33:23.390Z,74.00
2018-11-27T02:35:53.314Z,74.00
2018-11-27T02:38:26.867Z,73.80
2018-11-27T02:40:56.746Z,73.80
2018-11-27T02:43:26.657Z,73.70
2018-11-27T02:45:56.187Z,73.60
2018-11-27T02:48:25.619Z,73.60
2018-11-27T02:50:55.067Z,73.60
2018-11-27T02:53:24.439Z,73.60
2018-11-27T02:55:53.811Z,73.70
2018-11-27T02:58:23.803Z,73.70
2018-11-27T03:00:53.192Z,73.60
2018-11-27T03:03:22.577Z,73.60
2018-11-27T03:05:51.948Z,73.60
2018-11-27T03:08:22.640Z,73.60
2018-11-27T03:10:50.713Z,73.50
2018-11-27T03:13:20.096Z,73.40
2018-11-27T03:15:49.412Z,73.40
2018-11-27T03:18:19.949Z,73.40
2018-11-27T03:20:49.301Z,73.20
2018-11-27T03:23:19.224Z,73.10
2018-11-27T03:25:48.585Z,72.90
2018-11-27T03:31:40.221Z,73.30
2018-11-27T03:34:10.191Z,73.40
2018-11-27T03:36:40.075Z,73.30
2018-11-27T03:39:11.109Z,73.30
2018-11-27T03:41:41.324Z,73.30
2018-11-27T03:44:10.751Z,73.20
2018-11-27T03:46:40.246Z,73.40
2018-11-27T03:49:21.212Z,73.20
2018-11-27T03:51:50.689Z,73.10
2018-11-27T03:54:20.200Z,73.10
2018-11-27T03:56:51.438Z,73.10
2018-11-27T03:59:21.818Z,73.10
2018-11-27T04:01:51.205Z,73.00
2018-11-27T04:04:20.644Z,73.00
2018-11-27T04:06:50.082Z,73.00
2018-11-27T04:09:20.122Z,73.00
2018-11-27T04:11:49.735Z,73.10
2018-11-27T04:14:19.704Z,73.10
2018-11-27T04:16:49.620Z,73.00
2018-11-27T04:19:19.061Z,73.00
2018-11-27T04:21:48.501Z,73.10
2018-11-27T04:24:18.480Z,73.10
2018-11-27T04:26:47.865Z,73.10
2018-11-27T04:29:17.404Z,73.10
2018-11-27T04:31:47.352Z,73.20
2018-11-27T04:34:16.823Z,73.20
2018-11-27T04:36:47.549Z,73.30
2018-11-27T04:39:27.236Z,73.20
2018-11-27T04:41:56.635Z,73.40
2018-11-27T04:44:27.392Z,73.40
2018-11-27T04:46:56.860Z,73.50
2018-11-27T04:49:26.287Z,73.50
2018-11-27T04:51:57.063Z,73.50
2018-11-27T04:54:27.018Z,73.50
2018-11-27T04:56:57.001Z,73.50
2018-11-27T04:59:28.699Z,73.50
2018-11-27T05:02:01.120Z,73.50
2018-11-27T05:04:40.355Z,73.50
2018-11-27T05:07:10.367Z,73.40
2018-11-27T05:09:40.311Z,73.10
2018-11-27T05:12:09.769Z,72.70
2018-11-27T05:14:39.134Z,72.10
2018-11-27T05:17:09.183Z,71.80
2018-11-27T05:19:38.546Z,71.40
2018-11-27T05:22:07.936Z,70.90
2018-11-27T05:24:37.304Z,70.30
2018-11-27T05:27:06.727Z,70.00
2018-11-27T05:29:36.114Z,69.70
2018-11-27T05:32:06.021Z,69.30
2018-11-27T05:34:35.411Z,68.20
2018-11-27T05:37:06.088Z,66.00
2018-11-27T05:39:35.479Z,64.30
2018-11-27T05:42:05.348Z,62.50
2018-11-27T05:44:34.700Z,61.00
2018-11-27T05:47:04.498Z,60.40
2018-11-27T14:54:12.257Z,59.70
2018-11-27T14:56:42.229Z,60.30
2018-11-27T14:59:11.837Z,60.30
2018-11-27T15:01:41.435Z,60.20
2018-11-27T15:04:11.865Z,60.30
2018-11-27T15:06:41.606Z,60.30
2018-11-27T15:09:10.993Z,60.50
2018-11-27T15:11:41.139Z,60.30
2018-11-27T15:14:10.609Z,60.20
2018-11-27T15:16:40.060Z,60.10
2018-11-27T15:19:09.530Z,60.00
2018-11-27T15:21:38.988Z,60.00
2018-11-27T15:24:08.411Z,59.90
2018-11-27T15:26:38.412Z,59.90
2018-11-27T15:29:08.541Z,59.80
2018-11-27T15:31:38.262Z,59.80
2018-11-27T15:34:09.388Z,59.80
2018-11-27T15:36:38.840Z,59.90
2018-11-27T15:39:09.922Z,59.90
2018-11-27T15:41:39.359Z,60.00
2018-11-27T15:44:12.898Z,60.10
2018-11-27T15:46:42.397Z,60.20
2018-11-27T15:49:11.855Z,60.30
2018-11-27T15:51:41.903Z,60.60
2018-11-27T15:54:11.352Z,60.80
2018-11-27T15:56:40.948Z,61.00
2018-11-27T15:59:10.345Z,61.30
2018-11-27T16:01:39.753Z,61.50
2018-11-27T16:04:09.738Z,61.70
2018-11-27T16:06:41.515Z,62.00
2018-11-27T16:09:11.776Z,62.30
2018-11-27T16:11:41.140Z,63.50
2018-11-27T16:14:15.674Z,63.00
2018-11-27T16:16:45.341Z,63.70
2018-11-27T16:19:14.652Z,64.20
2018-11-27T16:21:44.114Z,64.50
2018-11-27T16:24:13.635Z,64.60
2018-11-27T16:26:43.176Z,64.50
2018-11-27T16:29:12.586Z,64.60
2018-11-27T16:31:42.084Z,64.60
2018-11-27T16:34:12.203Z,64.70
2018-11-27T16:36:41.736Z,64.60
2018-11-27T16:39:12.880Z,64.80
2018-11-27T16:41:43.030Z,64.70
2018-11-27T16:44:13.020Z,64.50
2018-11-27T16:46:42.582Z,63.90
2018-11-27T16:49:12.036Z,63.70
2018-11-27T16:51:41.504Z,63.50
2018-11-27T16:54:11.038Z,63.90
2018-11-27T17:46:40.539Z,60.30
2018-11-27T17:54:08.951Z,60.50
2018-11-27T17:56:38.496Z,61.10
2018-11-27T17:59:10.543Z,61.10
2018-11-27T18:01:40.025Z,61.10
2018-11-27T18:04:09.497Z,60.90
2018-11-27T18:06:38.921Z,60.90
2018-11-27T18:09:09.808Z,61.10
2018-11-27T18:11:39.220Z,61.00
2018-11-27T18:14:09.187Z,60.90
2018-11-27T18:16:38.604Z,61.10
2018-11-27T18:19:08.051Z,61.20
2018-11-27T18:21:37.495Z,61.30
2018-11-27T18:24:07.039Z,62.20
2018-11-27T18:26:36.478Z,62.50
2018-11-27T18:29:06.018Z,62.60
2018-11-27T18:31:35.504Z,62.80
2018-11-27T18:34:05.645Z,62.90
2018-11-27T18:39:22.787Z,63.00
2018-11-27T18:41:52.725Z,63.20
2018-11-27T18:44:22.292Z,63.70
2018-11-27T18:46:51.759Z,64.00
2018-11-27T18:49:21.815Z,64.20
2018-11-27T18:51:52.267Z,64.50
2018-11-27T18:54:23.714Z,64.60
2018-11-27T18:56:54.271Z,64.60
2018-11-27T18:59:24.836Z,64.70
2018-11-27T19:01:54.747Z,64.60
2018-11-27T19:04:24.670Z,64.30
2018-11-27T19:06:55.129Z,64.40
2018-11-27T19:09:25.935Z,64.40
2018-11-27T19:11:55.882Z,64.30
2018-11-27T19:14:25.856Z,64.10
2018-11-27T19:16:56.028Z,63.90
2018-11-27T19:19:25.860Z,63.60
2018-11-27T19:21:57.232Z,63.40
2018-11-27T19:24:27.220Z,63.20
2018-11-27T19:26:57.177Z,62.90
2018-11-27T19:29:27.430Z,62.60
2018-11-27T19:31:57.886Z,62.40
2018-11-27T19:34:27.772Z,62.30
2018-11-27T19:37:08.113Z,62.10
2018-11-27T19:39:38.154Z,62.80
2018-11-27T19:44:52.410Z,61.90
2018-11-27T19:47:23.068Z,61.80
2018-11-27T19:49:52.797Z,61.70
2018-11-27T19:52:23.496Z,61.70
2018-11-27T19:54:53.375Z,61.80
2018-11-27T19:57:24.484Z,61.80
2018-11-27T19:59:54.346Z,62.00
2018-11-27T20:02:28.470Z,62.10
2018-11-27T20:05:05.536Z,62.00
2018-11-27T20:07:36.398Z,61.90
2018-11-27T20:10:08.585Z,61.80
2018-11-27T20:12:38.586Z,61.80
2018-11-27T20:15:24.396Z,61.90
2018-11-27T20:17:55.705Z,61.70
2018-11-27T20:20:29.345Z,61.30
2018-11-27T20:22:59.739Z,61.10
2018-11-27T20:25:37.260Z,60.70
2018-11-27T20:28:08.661Z,60.60
2018-11-27T20:30:40.020Z,60.30
2018-11-27T20:33:16.879Z,60.20
2018-11-27T20:35:50.738Z,60.10
2018-11-27T20:38:20.800Z,60.00
2018-11-27T20:41:07.651Z,59.90
2018-11-27T20:43:37.447Z,59.80
2018-11-27T20:46:07.449Z,59.80
2018-11-27T20:48:56.943Z,60.60
2018-11-27T20:51:26.815Z,59.80
2018-11-27T20:54:08.879Z,59.80
2018-11-27T20:56:38.749Z,59.90
2018-11-27T20:59:21.715Z,60.00
2018-11-27T21:01:51.215Z,60.20
2018-11-27T21:04:25.064Z,60.60
2018-11-27T21:06:54.491Z,60.90
2018-11-27T21:09:26.338Z,61.20
2018-11-27T21:11:55.753Z,61.40
2018-11-27T21:14:33.410Z,61.60
2018-11-27T21:17:02.974Z,61.80
2018-11-27T21:19:41.366Z,61.80
2018-11-27T21:22:11.165Z,61.80
2018-11-27T21:24:53.257Z,61.80
2018-11-27T21:27:23.836Z,61.80
2018-11-27T21:30:00.091Z,61.60
2018-11-27T21:32:29.949Z,61.60
2018-11-27T21:35:02.566Z,61.60
2018-11-27T21:37:32.648Z,61.60
2018-11-27T21:40:06.925Z,61.70
2018-11-27T21:42:37.849Z,61.70
2018-11-27T21:45:11.405Z,61.70
2018-11-27T21:47:42.921Z,61.70
2018-11-27T21:50:20.066Z,61.70
2018-11-27T21:52:50.958Z,61.60
2018-11-27T22:07:41.057Z,61.50
2018-11-27T22:10:17.847Z,61.30
2018-11-27T22:12:49.688Z,61.30
2018-11-27T22:15:37.250Z,61.40
2018-11-27T22:18:08.496Z,61.40
2018-11-27T22:20:38.146Z,61.50
2018-11-27T22:23:08.497Z,61.60
2018-11-27T22:25:38.272Z,61.70
2018-11-27T22:28:08.843Z,61.80
2018-11-27T22:30:39.192Z,61.90
2018-11-27T22:33:09.257Z,61.90
2018-11-27T22:35:38.827Z,62.00
2018-11-27T22:38:08.623Z,62.00
2018-11-27T22:40:38.034Z,62.10
2018-11-27T22:43:08.450Z,62.00
2018-11-27T22:45:40.796Z,62.10
2018-11-27T22:48:12.244Z,62.00
2018-11-27T22:50:41.433Z,62.00
2018-11-27T22:53:11.171Z,61.90
2018-11-27T22:55:40.881Z,61.90
2018-11-27T22:58:10.643Z,61.80
2018-11-27T23:00:45.938Z,61.80
2018-11-27T23:03:16.023Z,61.80
2018-11-27T23:05:46.391Z,61.80
2018-11-27T23:08:16.182Z,62.40
2018-11-27T23:10:47.829Z,61.70
2018-11-27T23:13:17.713Z,61.70
2018-11-27T23:15:47.357Z,61.60
2018-11-27T23:18:17.215Z,61.70
2018-11-27T23:20:46.879Z,61.60
2018-11-27T23:23:16.765Z,61.60
2018-11-27T23:25:46.601Z,61.60
2018-11-27T23:28:16.287Z,61.60
2018-11-27T23:30:46.681Z,61.70
2018-11-27T23:33:16.493Z,61.70
2018-11-27T23:35:46.165Z,61.70
2018-11-27T23:38:15.997Z,61.70
2018-11-27T23:40:45.660Z,61.70
2018-11-27T23:43:15.362Z,61.60
2018-11-27T23:45:46.022Z,61.70
2018-11-27T23:48:15.786Z,61.70
2018-11-27T23:50:45.388Z,61.70
2018-11-27T23:53:16.931Z,61.60
2018-11-27T23:55:46.606Z,61.50
2018-11-27T23:58:16.372Z,61.60
